Time;durP1;ratioP1;P1;durP2;ratioP2;P2;SDS_P1;SDS_P2;PMS_P1;PMS_P2;Temp;Humidity;BMP_temperature;BMP_pressure;BME280_temperature;BME280_humidity;BME280_pressure;Samples;Min_cycle;Max_cycle;Signal;HPM_P1;HPM_P2
2023/10/08 00:02:26;292900.00;0.98;505.71;81110.00;0.27;140.95;;;;;18.30;1.00;;;;;;2264303;61;1463;-86
2023/10/08 00:04:54;223767.00;0.75;386.83;75914.00;0.25;131.98;;;;;18.20;1.00;;;;;;2264391;61;1059;-86
2023/10/08 00:07:23;221282.00;0.74;382.55;0.00;0.00;0.62;;;;;18.20;1.00;;;;;;2264347;61;1733;-85
2023/10/08 00:09:52;149864.00;0.50;259.57;0.00;0.00;0.62;;;;;18.20;1.00;;;;;;2264399;61;1119;-85
2023/10/08 00:12:20;121168.00;0.40;210.10;0.00;0.00;0.62;;;;;18.20;1.00;;;;;;2264257;61;1618;-86
2023/10/08 00:14:49;292014.00;0.97;504.19;0.00;0.00;0.62;;;;;18.10;1.00;;;;;;2264336;61;1928;-86
2023/10/08 00:17:17;76004.00;0.25;132.13;0.00;0.00;0.62;;;;;18.20;1.00;;;;;;2264343;61;956;-88
2023/10/08 00:19:44;1410352.00;4.70;2475.54;231836.00;0.77;400.71;;;;;18.30;1.00;;;;;;2264463;61;1024;-87
2023/10/08 00:22:13;1043604.00;3.48;1809.85;81891.00;0.27;142.30;;;;;18.10;1.00;;;;;;2264425;61;1393;-88
2023/10/08 00:24:42;275585.00;0.92;475.95;82559.00;0.28;143.46;;;;;18.00;1.00;;;;;;2264346;61;989;-87
2023/10/08 00:27:09;113322.00;0.38;196.56;0.00;0.00;0.62;;;;;18.10;1.00;;;;;;2264331;61;1734;-86
2023/10/08 00:29:39;116655.00;0.39;202.31;0.00;0.00;0.62;;;;;18.00;1.00;;;;;;2264274;61;1746;-87
2023/10/08 00:32:12;241340.00;0.80;417.06;33078.00;0.11;57.91;;;;;18.00;1.00;;;;;;2264211;61;1837;-87
2023/10/08 00:34:42;88255.00;0.29;153.29;0.00;0.00;0.62;;;;;17.90;1.00;;;;;;2264360;61;1932;-87
2023/10/08 00:37:10;202341.00;0.67;349.95;0.00;0.00;0.62;;;;;17.80;1.00;;;;;;2264360;61;1023;-86
2023/10/08 00:39:40;215575.00;0.72;372.73;0.00;0.00;0.62;;;;;17.70;1.00;;;;;;2264384;61;922;-87
2023/10/08 00:42:08;11341.00;0.04;20.27;0.00;0.00;0.62;;;;;17.60;1.00;;;;;;2264301;61;2242;-87
2023/10/08 00:44:41;44528.00;0.15;77.72;0.00;0.00;0.62;;;;;17.70;1.00;;;;;;2264186;61;1590;-88
2023/10/08 00:47:11;0.00;0.00;0.62;0.00;0.00;0.62;;;;;17.90;1.00;;;;;;2264274;61;1715;-88
2023/10/08 00:49:48;71745.00;0.24;124.78;0.00;0.00;0.62;;;;;18.00;1.00;;;;;;2264269;61;1729;-86
2023/10/08 00:55:09;108085.00;0.36;187.53;41691.00;0.14;72.81;;;;;18.30;1.00;;;;;;2263477;61;1932;-85
2023/10/08 00:57:42;1562585.00;5.21;2761.45;175033.00;0.58;302.94;;;;;18.40;1.00;;;;;;2264250;61;1107;-88
2023/10/08 01:00:16;452121.00;1.51;779.43;33465.00;0.11;58.58;;;;;18.30;1.00;;;;;;2264257;61;1618;-87
2023/10/08 01:02:45;443809.00;1.48;765.13;62109.00;0.21;108.12;;;;;18.20;1.00;;;;;;2264267;61;1754;-86
2023/10/08 01:05:18;236852.00;0.79;409.34;83005.00;0.28;144.23;;;;;18.00;1.00;;;;;;2264273;61;1091;-87
2023/10/08 01:07:49;21431.00;0.07;37.75;0.00;0.00;0.62;;;;;17.90;1.00;;;;;;2264186;61;1023;-87
2023/10/08 01:10:19;97764.00;0.33;169.71;0.00;0.00;0.62;;;;;18.00;1.00;;;;;;2264206;61;1360;-86
2023/10/08 01:13:03;26860.00;0.09;47.15;0.00;0.00;0.62;;;;;17.90;1.00;;;;;;2264201;61;1919;-86
2023/10/08 01:15:31;31521.00;0.11;55.22;0.00;0.00;0.62;;;;;17.90;1.00;;;;;;2264203;61;995;-87
2023/10/08 01:18:00;179160.00;0.60;310.04;45222.00;0.15;78.92;;;;;17.90;1.00;;;;;;2264106;61;1682;-87
2023/10/08 01:20:34;814904.00;2.72;1407.13;135394.00;0.45;234.63;;;;;18.00;1.00;;;;;;2264144;61;1359;-87
2023/10/08 01:23:05;1045506.00;3.49;1813.24;145064.00;0.48;251.30;;;;;18.10;1.00;;;;;;2264281;61;1086;-88
2023/10/08 01:25:32;2246040.00;7.49;4142.37;209987.00;0.70;363.11;;;;;18.30;1.00;;;;;;2264248;61;1259;-86
2023/10/08 01:28:00;971478.00;3.24;1682.02;160463.00;0.53;277.84;;;;;18.20;1.00;;;;;;2264134;61;1100;-86
2023/10/08 01:30:34;256278.00;0.85;442.75;76603.00;0.26;133.17;;;;;18.10;1.00;;;;;;2264095;61;1274;-87
2023/10/08 01:33:02;174240.00;0.58;301.57;73292.00;0.24;127.45;;;;;18.10;1.00;;;;;;2264119;61;2008;-87
2023/10/08 01:35:31;27513.00;0.09;48.28;0.00;0.00;0.62;;;;;18.00;1.00;;;;;;2264218;61;1040;-87
2023/10/08 01:38:00;135331.00;0.45;234.52;0.00;0.00;0.62;;;;;17.80;1.00;;;;;;2264102;61;1774;-86
2023/10/08 01:40:29;239170.00;0.80;413.32;9199.00;0.03;16.56;;;;;17.60;1.00;;;;;;2264055;61;1362;-87
2023/10/08 01:42:59;2048620.00;6.83;3724.64;306782.00;1.02;529.58;;;;;17.60;1.00;;;;;;2264206;61;1037;-88
2023/10/08 01:45:26;1307396.00;4.36;2285.65;199602.00;0.67;345.24;;;;;17.40;1.00;;;;;;2264140;61;1095;-88
2023/10/08 01:47:54;443957.00;1.48;765.39;76019.00;0.25;132.16;;;;;17.40;1.00;;;;;;2264189;61;1099;-87
2023/10/08 01:50:22;126415.00;0.42;219.15;11420.00;0.04;20.41;;;;;17.50;1.00;;;;;;2263982;61;1330;-87
2023/10/08 01:52:49;143112.00;0.48;247.94;0.00;0.00;0.62;;;;;17.60;1.00;;;;;;2264084;61;934;-87
2023/10/08 01:55:19;303583.00;1.01;524.08;11709.00;0.04;20.91;;;;;17.70;1.00;;;;;;2264081;61;2007;-86
2023/10/08 01:57:48;107654.00;0.36;186.78;0.00;0.00;0.62;;;;;17.80;1.00;;;;;;2263994;61;1115;-87
2023/10/08 02:00:19;323678.00;1.08;558.62;97415.00;0.32;169.11;;;;;18.00;1.00;;;;;;2263926;61;1273;-86
2023/10/08 02:02:46;1953620.00;6.51;3529.52;202377.00;0.67;350.02;;;;;18.00;1.00;;;;;;2264126;61;1032;-87
2023/10/08 02:05:14;947856.00;3.16;1640.33;53697.00;0.18;93.58;;;;;18.00;1.00;;;;;;2264092;61;1090;-86
2023/10/08 02:07:44;439414.00;1.46;757.58;91138.00;0.30;158.27;;;;;18.10;1.00;;;;;;2263920;61;1039;-87
2023/10/08 02:10:11;315068.00;1.05;543.82;0.00;0.00;0.62;;;;;18.20;1.00;;;;;;2264043;61;1120;-87
2023/10/08 02:12:38;395844.00;1.32;682.66;18159.00;0.06;32.08;;;;;18.30;1.00;;;;;;2263916;61;1461;-86
2023/10/08 02:15:07;18174.00;0.06;32.11;0.00;0.00;0.62;;;;;18.20;1.00;;;;;;2264003;61;1932;-87
2023/10/08 02:17:35;350177.00;1.17;604.17;31725.00;0.11;55.57;;;;;18.10;1.00;;;;;;2264025;61;1013;-85
2023/10/08 02:20:05;1335688.00;4.45;2337.57;138413.00;0.46;239.83;;;;;18.00;1.00;;;;;;2264019;61;1106;-87
2023/10/08 02:22:32;1524573.00;5.08;2689.44;123858.00;0.41;214.74;;;;;17.90;1.00;;;;;;2264030;61;1314;-88
2023/10/08 02:25:01;1351440.00;4.50;2366.56;227651.00;0.76;393.51;;;;;18.20;1.00;;;;;;2264037;61;1054;-87
2023/10/08 02:27:28;513168.00;1.71;884.50;72594.00;0.24;126.24;;;;;18.30;1.00;;;;;;2263937;61;1098;-86
2023/10/08 02:29:55;452945.00;1.51;780.85;77080.00;0.26;133.99;;;;;18.30;1.00;;;;;;2263925;61;1673;-88
2023/10/08 02:32:23;401682.00;1.34;692.70;0.00;0.00;0.62;;;;;18.30;1.00;;;;;;2264070;61;1266;-86
2023/10/08 02:34:50;211277.00;0.70;365.33;0.00;0.00;0.62;;;;;18.30;1.00;;;;;;2263971;61;1920;-85
2023/10/08 02:37:19;210522.00;0.70;364.03;6003.00;0.02;11.02;;;;;18.10;1.00;;;;;;2263933;61;1039;-85
2023/10/08 02:39:46;279198.00;0.93;482.16;45044.00;0.15;78.61;;;;;18.20;1.00;;;;;;2264001;61;1163;-86
2023/10/08 02:42:14;349098.00;1.16;602.31;13867.00;0.05;24.65;;;;;18.30;1.00;;;;;;2264026;61;1389;-85
2023/10/08 02:44:42;352032.00;1.17;607.35;0.00;0.00;0.62;;;;;18.20;1.00;;;;;;2263881;61;1084;-87
2023/10/08 02:47:11;2090411.00;6.97;3811.65;449565.00;1.50;775.03;;;;;18.30;1.00;;;;;;2263891;61;1114;-87
2023/10/08 02:49:42;1126644.00;3.76;1958.14;210035.00;0.70;363.20;;;;;18.00;1.00;;;;;;2263887;61;1563;-87
2023/10/08 02:52:09;302480.00;1.01;522.18;71497.00;0.24;124.35;;;;;17.80;1.00;;;;;;2263969;61;1464;-88
2023/10/08 02:54:37;199352.00;0.66;344.81;23947.00;0.08;42.10;;;;;17.80;1.00;;;;;;2263934;61;1910;-86
2023/10/08 02:57:10;441815.00;1.47;761.70;121654.00;0.41;210.94;;;;;17.60;1.00;;;;;;2264000;61;920;-89
2023/10/08 02:59:40;90834.00;0.30;157.75;0.00;0.00;0.62;;;;;17.80;1.00;;;;;;2263963;61;1068;-88
2023/10/08 03:02:14;258302.00;0.86;446.23;10080.00;0.03;18.09;;;;;17.50;1.00;;;;;;2264052;61;1338;-87
2023/10/08 03:04:45;103841.00;0.35;180.20;0.00;0.00;0.62;;;;;17.20;1.00;;;;;;2264219;61;1022;-85
2023/10/08 03:07:21;267807.00;0.89;462.57;14384.00;0.05;25.54;;;;;17.10;1.00;;;;;;2264213;61;1041;-87
2023/10/08 03:09:49;299503.00;1.00;517.07;0.00;0.00;0.62;;;;;17.10;1.00;;;;;;2264148;61;1124;-87
2023/10/08 03:12:17;254213.00;0.85;439.20;0.00;0.00;0.62;;;;;17.20;1.00;;;;;;2264170;61;1406;-86
2023/10/08 03:15:00;845097.00;2.82;1459.89;98268.00;0.33;170.58;;;;;17.20;1.00;;;;;;2264145;61;1922;-86
2023/10/08 03:17:28;715807.00;2.39;1234.66;76078.00;0.25;132.26;;;;;17.30;1.00;;;;;;2264183;61;1127;-86
2023/10/08 03:20:27;905318.00;3.02;1565.46;94162.00;0.31;163.49;;;;;17.50;1.00;;;;;;2264768;61;1776;-86
2023/10/08 03:22:46;361118.00;1.20;622.97;77656.00;0.26;134.99;;;;;17.60;1.00;;;;;;2264859;61;1238;-85
2023/10/08 03:25:19;281010.00;0.94;485.27;82389.00;0.27;143.16;;;;;17.70;1.00;;;;;;2264809;61;957;-85
2023/10/08 03:27:48;266524.00;0.89;460.37;81595.00;0.27;141.79;;;;;17.60;1.00;;;;;;2264899;61;1087;-86
2023/10/08 03:30:15;238972.00;0.80;412.98;37277.00;0.12;65.18;;;;;17.60;1.00;;;;;;2264874;61;1280;-89
2023/10/08 03:32:44;163128.00;0.54;282.43;32762.00;0.11;57.36;;;;;17.70;1.00;;;;;;2264675;61;1632;-88
2023/10/08 03:35:12;13293.00;0.04;23.65;0.00;0.00;0.62;;;;;18.10;1.00;;;;;;2264820;61;1920;-87
2023/10/08 03:37:46;55133.00;0.18;96.06;0.00;0.00;0.62;;;;;18.40;1.00;;;;;;2264814;61;1118;-86
2023/10/08 03:40:24;114700.00;0.38;198.94;0.00;0.00;0.62;;;;;18.30;1.00;;;;;;2264810;61;1071;-86
2023/10/08 03:42:52;199076.00;0.66;344.33;42900.00;0.14;74.91;;;;;18.40;1.00;;;;;;2264841;61;1201;-87
2023/10/08 03:48:09;1061137.00;3.54;1841.06;189912.00;0.63;328.56;;;;;18.50;1.00;;;;;;2264568;61;1193;-87
2023/10/08 03:50:43;1082924.00;3.61;1879.91;87777.00;0.29;152.47;;;;;18.40;1.00;;;;;;2264734;61;1713;-87
2023/10/08 03:53:11;590981.00;1.97;1018.65;95421.00;0.32;165.67;;;;;18.30;1.00;;;;;;2264739;61;1099;-86
2023/10/08 03:55:40;33951.00;0.11;59.42;0.00;0.00;0.62;;;;;18.40;1.00;;;;;;2264750;61;2013;-87
2023/10/08 03:58:11;102892.00;0.34;178.56;0.00;0.00;0.62;;;;;18.30;1.00;;;;;;2264661;61;1699;-87
2023/10/08 04:00:41;70570.00;0.24;122.75;0.00;0.00;0.62;;;;;18.60;1.00;;;;;;2264746;61;1270;-86
2023/10/08 04:03:11;63598.00;0.21;110.70;0.00;0.00;0.62;;;;;18.70;1.00;;;;;;2264760;61;1072;-86
2023/10/08 04:05:59;346193.00;1.15;597.32;107627.00;0.36;186.74;;;;;18.80;1.00;;;;;;2264674;61;1181;-86
2023/10/08 04:08:42;104105.00;0.35;180.66;0.00;0.00;0.62;;;;;19.00;1.00;;;;;;2264673;61;2355;-86
2023/10/08 04:11:22;501999.00;1.67;865.27;12983.00;0.04;23.12;;;;;19.00;1.00;;;;;;2264603;61;1365;-86
2023/10/08 04:13:51;507203.00;1.69;874.23;75817.00;0.25;131.81;;;;;19.10;1.00;;;;;;2264513;61;1918;-87
2023/10/08 04:16:19;0.00;0.00;0.62;0.00;0.00;0.62;;;;;19.20;1.00;;;;;;2264740;61;1088;-88
2023/10/08 04:18:50;174790.00;0.58;302.52;0.00;0.00;0.62;;;;;19.20;1.00;;;;;;2264700;61;1225;-87
2023/10/08 04:21:20;587934.00;1.96;1013.39;105335.00;0.35;182.78;;;;;19.00;1.00;;;;;;2264699;61;1335;-87
2023/10/08 04:23:52;1184886.00;3.95;2062.92;190309.00;0.63;329.24;;;;;18.80;1.00;;;;;;2264646;61;1116;-86
2023/10/08 04:26:23;1526898.00;5.09;2693.84;67463.00;0.22;117.38;;;;;18.70;1.00;;;;;;2264510;61;1056;-86
2023/10/08 04:28:54;338097.00;1.13;583.40;85903.00;0.29;149.23;;;;;19.00;1.00;;;;;;2264356;61;2071;-86
2023/10/08 04:31:24;87025.00;0.29;151.17;0.00;0.00;0.62;;;;;19.30;1.00;;;;;;2264663;61;1388;-85
2023/10/08 04:33:52;96525.00;0.32;167.57;0.00;0.00;0.62;;;;;19.30;1.00;;;;;;2264598;61;1984;-88
2023/10/08 04:36:21;148240.00;0.49;256.77;38233.00;0.13;66.83;;;;;18.90;1.00;;;;;;2264584;61;986;-87
2023/10/08 04:38:48;469991.00;1.57;810.17;33286.00;0.11;58.27;;;;;18.90;1.00;;;;;;2264554;61;1143;-86
2023/10/08 04:41:19;870202.00;2.90;1503.84;152627.00;0.51;264.33;;;;;19.00;1.00;;;;;;2264522;61;1686;-87
2023/10/08 04:43:49;121104784.00;403.68;71953040.00;190770.00;0.64;330.03;;;;;18.80;1.00;;;;;;2264549;61;1059;-88
2023/10/08 04:46:34;30807.00;0.10;53.98;0.00;0.00;0.62;;;;;18.70;1.00;;;;;;2264596;61;1084;-86
2023/10/08 04:49:05;55886.00;0.19;97.36;0.00;0.00;0.62;;;;;18.90;1.00;;;;;;2264524;61;1537;-85
2023/10/08 04:51:40;12753.00;0.04;22.72;0.00;0.00;0.62;;;;;19.30;1.00;;;;;;2264572;61;1339;-86
2023/10/08 04:54:07;28051.00;0.09;49.21;0.00;0.00;0.62;;;;;19.50;1.00;;;;;;2264435;61;1916;-86
2023/10/08 04:56:33;85583.00;0.29;148.68;0.00;0.00;0.62;;;;;19.30;1.00;;;;;;2264536;61;1741;-87
2023/10/08 04:59:00;144176.00;0.48;249.77;0.00;0.00;0.62;;;;;19.20;1.00;;;;;;2264521;61;1121;-86
2023/10/08 05:01:38;86655.00;0.29;150.53;10485.00;0.03;18.79;;;;;19.00;1.00;;;;;;2264517;61;1298;-87
2023/10/08 05:04:23;22100.00;0.07;38.91;0.00;0.00;0.62;;;;;19.20;1.00;;;;;;2264539;61;1024;-86
2023/10/08 05:07:00;415150.00;1.38;715.85;0.00;0.00;0.62;;;;;19.20;1.00;;;;;;2264542;61;1143;-86
2023/10/08 05:09:41;555703.00;1.85;957.79;10471.00;0.03;18.77;;;;;19.00;1.00;;;;;;2264189;61;990;-86
2023/10/08 05:12:15;368285.00;1.23;635.29;107572.00;0.36;186.64;;;;;19.30;1.00;;;;;;2264429;61;1620;-87
2023/10/08 05:14:56;144863.00;0.48;250.95;27573.00;0.09;48.38;;;;;19.20;1.00;;;;;;2264510;61;1981;-86
2023/10/08 05:17:22;106457.00;0.35;184.72;0.00;0.00;0.62;;;;;18.90;1.00;;;;;;2264526;61;982;-86
2023/10/08 05:20:01;186054.00;0.62;321.91;0.00;0.00;0.62;;;;;18.70;1.00;;;;;;2264532;61;1157;-85
2023/10/08 05:22:44;169540.00;0.57;293.47;19233.00;0.06;33.94;;;;;18.70;1.00;;;;;;2264458;61;1429;-85
2023/10/08 05:25:24;177529.00;0.59;307.23;34696.00;0.12;60.71;;;;;18.70;1.00;;;;;;2264498;61;1807;-88
2023/10/08 05:28:09;1155919.00;3.85;2010.72;76404.00;0.25;132.83;;;;;18.90;1.00;;;;;;2257524;61;1001;-86
2023/10/08 05:30:39;1563281.00;5.21;2762.77;208344.00;0.69;360.29;;;;;19.10;1.00;;;;;;2264469;61;1608;-87
2023/10/08 05:33:24;1104608.00;3.68;1918.67;80494.00;0.27;139.89;;;;;19.00;1.00;;;;;;2264470;61;1187;-84
2023/10/08 05:35:54;289207.00;0.96;499.37;76037.00;0.25;132.19;;;;;19.10;1.00;;;;;;2264466;61;1927;-85
2023/10/08 05:38:37;41513.00;0.14;72.51;0.00;0.00;0.62;;;;;19.10;1.00;;;;;;2264414;61;1011;-86
2023/10/08 05:41:27;84271.00;0.28;146.41;0.00;0.00;0.62;;;;;19.00;1.00;;;;;;2264205;61;1372;-86
2023/10/08 05:44:14;63469.00;0.21;110.47;0.00;0.00;0.62;;;;;18.90;1.00;;;;;;2264438;61;1127;-87
2023/10/08 05:46:49;0.00;0.00;0.62;0.00;0.00;0.62;;;;;18.50;1.00;;;;;;2264466;61;1191;-86
2023/10/08 05:49:42;172223.00;0.57;298.10;0.00;0.00;0.62;;;;;18.50;1.00;;;;;;2264379;61;1017;-87
2023/10/08 05:52:25;1032397.00;3.44;1789.94;80746.00;0.27;140.33;;;;;18.40;1.00;;;;;;2264325;61;1799;-86
2023/10/08 05:57:46;1121769.00;3.74;1949.40;249733.00;0.83;431.49;;;;;19.10;1.00;;;;;;2264241;61;1214;-85
2023/10/08 06:03:31;177309.00;0.59;306.86;0.00;0.00;0.62;;;;;18.30;1.00;;;;;;2264459;61;715;-86
2023/10/08 06:06:22;415595.00;1.39;716.62;88954.00;0.30;154.50;;;;;18.10;1.00;;;;;;2264327;61;1083;-86
2023/10/08 06:09:21;214997.00;0.72;371.73;76189.00;0.25;132.45;;;;;18.40;1.00;;;;;;2264409;61;1154;-87
2023/10/08 06:14:52;254954.00;0.85;440.47;74306.00;0.25;129.20;;;;;19.00;1.00;;;;;;2264342;61;1912;-86
2023/10/08 06:17:44;325585.00;1.09;561.90;74400.00;0.25;129.36;;;;;18.90;1.00;;;;;;2264371;61;1089;-87
2023/10/08 06:20:16;945554.00;3.15;1636.27;128206.00;0.43;222.24;;;;;18.40;1.00;;;;;;2264337;61;1084;-89
2023/10/08 06:22:43;122647544.00;408.83;74740696.00;99156.00;0.33;172.11;;;;;18.40;1.00;;;;;;2264324;61;1103;-86
2023/10/08 06:25:18;0.00;0.00;0.62;0.00;0.00;0.62;;;;;18.50;1.00;;;;;;2264312;61;944;-86
2023/10/08 06:27:46;0.00;0.00;0.62;0.00;0.00;0.62;;;;;18.30;1.00;;;;;;2264284;61;1003;-87
2023/10/08 06:30:16;60090.00;0.20;104.63;0.00;0.00;0.62;;;;;18.70;1.00;;;;;;2264294;61;1080;-87
2023/10/08 06:32:45;95649.00;0.32;166.06;0.00;0.00;0.62;;;;;19.10;1.00;;;;;;2264291;61;1065;-85
2023/10/08 06:35:17;126740.00;0.42;219.71;29799.00;0.10;52.24;;;;;19.30;1.00;;;;;;2264266;61;1993;-87
2023/10/08 06:37:44;365941.00;1.22;631.26;96627.00;0.32;167.75;;;;;19.60;1.00;;;;;;2264287;61;1064;-87
2023/10/08 06:40:40;1311796.00;4.37;2293.71;184718.00;0.62;319.61;;;;;19.90;1.00;;;;;;2264247;61;978;-87
2023/10/08 06:43:11;1299738.00;4.33;2271.63;244328.00;0.81;422.20;;;;;20.00;1.00;;;;;;2264279;61;1125;-86
2023/10/08 06:45:39;858777.00;2.86;1483.83;172655.00;0.58;298.84;;;;;20.10;1.00;;;;;;2264337;61;1124;-84
2023/10/08 06:48:09;229297.00;0.76;396.34;24393.00;0.08;42.88;;;;;20.20;1.00;;;;;;2264317;61;1115;-87
2023/10/08 06:50:35;25747.00;0.09;45.22;0.00;0.00;0.62;;;;;20.30;1.00;;;;;;2264261;61;1265;-85
2023/10/08 06:53:06;87522.00;0.29;152.03;0.00;0.00;0.62;;;;;20.60;1.00;;;;;;2264242;61;1088;-87
2023/10/08 06:55:35;105608.00;0.35;183.25;0.00;0.00;0.62;;;;;20.20;1.00;;;;;;2264310;61;1922;-88
2023/10/08 06:58:07;380474.00;1.27;656.24;12251.00;0.04;21.85;;;;;20.00;1.00;;;;;;2264121;61;1686;-87
2023/10/08 07:00:46;1467709.00;4.89;2582.51;279623.00;0.93;482.89;;;;;20.20;1.00;;;;;;2264181;61;1614;-87
2023/10/08 07:03:15;823682.00;2.75;1422.46;109810.00;0.37;190.50;;;;;20.40;1.00;;;;;;2264205;61;1611;-87
2023/10/08 07:05:44;394875.00;1.32;680.99;83394.00;0.28;144.90;;;;;20.70;1.00;;;;;;2264246;61;1215;-88
2023/10/08 07:08:13;249113.00;0.83;430.43;74341.00;0.25;129.26;;;;;20.60;1.00;;;;;;2264198;61;1135;-87
2023/10/08 07:10:42;218044.00;0.73;376.98;0.00;0.00;0.62;;;;;20.70;1.00;;;;;;2264169;61;1270;-88
2023/10/08 07:13:10;152101.00;0.51;263.43;0.00;0.00;0.62;;;;;20.70;1.00;;;;;;2264182;61;1781;-88
2023/10/08 07:15:40;156878.00;0.52;271.66;0.00;0.00;0.62;;;;;21.30;1.00;;;;;;2264184;61;2011;-85
2023/10/08 07:18:12;16614.00;0.06;29.41;0.00;0.00;0.62;;;;;21.70;1.00;;;;;;2264197;61;1279;-87
2023/10/08 07:20:41;453701.00;1.51;782.15;75242.00;0.25;130.82;;;;;22.00;1.00;;;;;;2264140;61;1365;-86
2023/10/08 07:23:18;120716288.00;402.39;71262168.00;146336.00;0.49;253.49;;;;;22.00;1.00;;;;;;2264153;61;1091;-87
2023/10/08 07:25:53;1671759.00;5.57;2970.68;145039.00;0.48;251.26;;;;;22.30;1.00;;;;;;2264244;61;1161;-85
2023/10/08 07:28:21;947497.00;3.16;1639.70;131726.00;0.44;228.31;;;;;22.30;1.00;;;;;;2264106;61;1009;-88
2023/10/08 07:30:49;399325.00;1.33;688.64;76348.00;0.25;132.73;;;;;22.40;1.00;;;;;;2264199;61;1286;-88
2023/10/08 07:33:18;490124.00;1.63;844.82;133967.00;0.45;232.17;;;;;22.40;1.00;;;;;;2264158;61;969;-88
2023/10/08 07:35:54;460056.00;1.53;793.08;97027.00;0.32;168.44;;;;;22.80;1.00;;;;;;2264169;61;2005;-87
2023/10/08 07:38:22;73564.00;0.25;127.92;0.00;0.00;0.62;;;;;23.10;1.00;;;;;;2264142;61;949;-87
2023/10/08 07:40:49;0.00;0.00;0.62;0.00;0.00;0.62;;;;;23.20;1.00;;;;;;2264078;61;1380;-86
2023/10/08 07:43:20;162244.00;0.54;280.91;0.00;0.00;0.62;;;;;23.40;1.00;;;;;;2264062;61;1536;-88
2023/10/08 07:45:48;228702.00;0.76;395.32;50690.00;0.17;88.38;;;;;24.00;1.00;;;;;;2264167;61;1033;-86
2023/10/08 07:48:15;0.00;0.00;0.62;0.00;0.00;0.62;;;;;24.40;1.00;;;;;;2263992;61;1558;-86
2023/10/08 07:50:45;248523.00;0.83;429.41;0.00;0.00;0.62;;;;;24.90;1.00;;;;;;2264002;61;1282;-88
2023/10/08 07:53:17;173526.00;0.58;300.34;0.00;0.00;0.62;;;;;25.30;1.00;;;;;;2264013;61;1590;-86
2023/10/08 07:55:46;318932.00;1.06;550.46;55136.00;0.18;96.07;;;;;25.90;1.00;;;;;;2264000;61;2009;-86
2023/10/08 07:58:15;91954.00;0.31;159.68;0.00;0.00;0.62;;;;;25.80;1.00;;;;;;2263912;61;1093;-85
2023/10/08 08:00:51;1188443.00;3.96;2069.34;134412.00;0.45;232.94;;;;;25.80;1.00;;;;;;2263998;61;1293;-86
2023/10/08 08:03:20;968766.00;3.23;1677.23;8747.00;0.03;15.78;;;;;25.60;1.00;;;;;;2263949;61;1538;-87
2023/10/08 08:05:47;1126704.00;3.76;1958.25;56755.00;0.19;98.87;;;;;25.30;1.00;;;;;;2264569;61;1112;-87
2023/10/08 08:08:17;974904.00;3.25;1688.07;79774.00;0.27;138.65;;;;;25.10;1.00;;;;;;2264751;61;1149;-88
2023/10/08 08:10:45;22402.00;0.07;39.43;0.00;0.00;0.62;;;;;24.70;1.00;;;;;;2264635;61;1396;-86
2023/10/08 08:13:20;181096.00;0.60;313.38;0.00;0.00;0.62;;;;;24.60;1.00;;;;;;2264665;61;1113;-87
2023/10/08 08:15:50;181573.00;0.61;314.20;40325.00;0.13;70.45;;;;;24.40;1.00;;;;;;2264586;61;2435;-87
2023/10/08 08:18:23;249764.00;0.83;431.55;75454.00;0.25;131.18;;;;;24.10;1.00;;;;;;2264654;61;958;-85
2023/10/08 08:20:50;175146.00;0.58;303.13;66045.00;0.22;114.93;;;;;24.10;1.00;;;;;;2264621;61;1425;-87
2023/10/08 08:23:17;94538.00;0.32;164.14;13337.00;0.04;23.73;;;;;24.00;1.00;;;;;;2264671;61;1251;-88
2023/10/08 08:26:05;123702.00;0.41;214.47;0.00;0.00;0.62;;;;;23.70;1.00;;;;;;2264715;61;1074;-86
2023/10/08 08:28:32;301407.00;1.00;520.34;51020.00;0.17;88.95;;;;;23.70;1.00;;;;;;2264643;61;2189;-85
2023/10/08 08:31:04;556789.00;1.86;959.66;62044.00;0.21;108.01;;;;;23.70;1.00;;;;;;2264707;61;1266;-86
2023/10/08 08:33:52;1867525.00;6.23;3355.76;262186.00;0.87;452.91;;;;;23.70;1.00;;;;;;2264689;61;1030;-88
2023/10/08 08:36:20;1867711.00;6.23;3356.14;314599.00;1.05;543.01;;;;;24.00;1.00;;;;;;2264670;61;1999;-89
2023/10/08 08:38:47;919108.00;3.06;1589.70;135777.00;0.45;235.29;;;;;23.80;1.00;;;;;;2264667;61;1103;-86
2023/10/08 08:41:17;397600.00;1.33;685.68;71213.00;0.24;123.86;;;;;23.70;1.00;;;;;;2264662;61;1345;-89
2023/10/08 08:43:48;81615.00;0.27;141.83;0.00;0.00;0.62;;;;;24.10;1.00;;;;;;2264627;61;1312;-87
2023/10/08 08:46:15;323465.00;1.08;558.25;0.00;0.00;0.62;;;;;24.20;1.00;;;;;;2264624;61;965;-88
2023/10/08 08:48:45;335656.00;1.12;579.21;0.00;0.00;0.62;;;;;24.10;1.00;;;;;;2264591;61;929;-88
2023/10/08 08:51:13;46178.00;0.15;80.58;0.00;0.00;0.62;;;;;24.10;1.00;;;;;;2264620;61;1290;-86
2023/10/08 08:53:40;71156.00;0.24;123.76;0.00;0.00;0.62;;;;;24.30;1.00;;;;;;2264457;61;1052;-87
2023/10/08 08:56:10;132374.00;0.44;229.42;28408.00;0.09;49.83;;;;;24.50;1.00;;;;;;2264594;61;1996;-87
2023/10/08 08:58:37;43157.00;0.14;75.35;0.00;0.00;0.62;;;;;24.10;1.00;;;;;;2264468;61;1481;-87
2023/10/08 09:01:07;402957.00;1.34;694.89;53145.00;0.18;92.62;;;;;23.80;1.00;;;;;;2264563;61;1437;-88
2023/10/08 09:03:34;1017312.00;3.39;1763.16;107381.00;0.36;186.31;;;;;23.80;1.00;;;;;;2264452;61;1222;-86
2023/10/08 09:06:04;1454486.00;4.85;2557.77;167045.00;0.56;289.18;;;;;23.90;1.00;;;;;;2264414;61;1842;-87
2023/10/08 09:08:35;1987409.00;6.62;3598.50;324521.00;1.08;560.07;;;;;24.00;1.00;;;;;;2264595;61;1055;-87
2023/10/08 09:11:04;344475.00;1.15;594.37;75441.00;0.25;131.16;;;;;24.10;1.00;;;;;;2264243;61;1874;-87
2023/10/08 09:13:34;282202.00;0.94;487.32;70973.00;0.24;123.44;;;;;24.00;1.00;;;;;;2264506;61;1123;-87
2023/10/08 09:16:09;279671.00;0.93;482.97;67437.00;0.22;117.33;;;;;24.00;1.00;;;;;;2264228;61;1927;-87
2023/10/08 09:18:36;372616.00;1.24;642.73;156744.00;0.52;271.43;;;;;24.10;1.00;;;;;;2264594;61;1032;-88
2023/10/08 09:21:12;275635.00;0.92;476.03;0.00;0.00;0.62;;;;;24.00;1.00;;;;;;2264571;61;1289;-87
2023/10/08 09:23:48;225834.00;0.75;390.38;0.00;0.00;0.62;;;;;24.20;1.00;;;;;;2264524;61;1070;-89
2023/10/08 09:26:18;41815.00;0.14;73.03;0.00;0.00;0.62;;;;;24.30;1.00;;;;;;2264415;61;1031;-88
2023/10/08 09:28:48;79013.00;0.26;137.33;0.00;0.00;0.62;;;;;24.70;1.00;;;;;;2264367;61;1450;-88
2023/10/08 09:31:17;55770.00;0.19;97.16;0.00;0.00;0.62;;;;;24.70;1.00;;;;;;2264503;61;1400;-88
2023/10/08 09:33:44;231171.00;0.77;399.56;25503.00;0.09;44.80;;;;;24.50;1.00;;;;;;2264409;61;1473;-86
2023/10/08 09:36:18;43168.00;0.14;75.37;0.00;0.00;0.62;;;;;24.60;1.00;;;;;;2264502;61;2002;-87
2023/10/08 09:38:48;256902.00;0.86;443.82;37185.00;0.12;65.02;;;;;24.70;1.00;;;;;;2264454;61;931;-88
2023/10/08 09:41:15;47683.00;0.16;83.18;0.00;0.00;0.62;;;;;25.00;1.00;;;;;;2264469;61;1430;-89
2023/10/08 09:43:43;123227.00;0.41;213.65;0.00;0.00;0.62;;;;;25.10;1.00;;;;;;2264418;61;2069;-87
2023/10/08 09:46:16;84828.00;0.28;147.38;0.00;0.00;0.62;;;;;25.50;1.00;;;;;;2264463;61;989;-85
2023/10/08 09:48:50;180775.00;0.60;312.82;20833.00;0.07;36.71;;;;;25.60;1.00;;;;;;2264429;61;1021;-86
2023/10/08 09:51:19;171539.00;0.57;296.92;0.00;0.00;0.62;;;;;25.60;1.00;;;;;;2264398;61;1282;-85
2023/10/08 09:53:54;0.00;0.00;0.62;0.00;0.00;0.62;;;;;26.00;1.00;;;;;;2264388;61;1098;-87
2023/10/08 09:56:23;89076.00;0.30;154.71;0.00;0.00;0.62;;;;;26.20;1.00;;;;;;2264365;61;1916;-88
2023/10/08 09:58:53;261496.00;0.87;451.72;84758.00;0.28;147.26;;;;;26.90;1.00;;;;;;2264364;61;1072;-86
2023/10/08 10:01:22;1022422.00;3.41;1772.22;125242.00;0.42;217.12;;;;;27.20;1.00;;;;;;2264290;61;1369;-87
2023/10/08 10:03:50;1311976.00;4.37;2294.04;198093.00;0.66;342.64;;;;;27.30;1.00;;;;;;2264336;61;1532;-87
2023/10/08 10:06:20;1111116.00;3.70;1930.31;68870.00;0.23;119.81;;;;;27.60;1.00;;;;;;2264267;61;912;-86
2023/10/08 10:08:49;916190.00;3.05;1584.57;105092.00;0.35;182.36;;;;;27.80;1.00;;;;;;2264296;61;1931;-87
2023/10/08 10:11:16;1418770.00;4.73;2491.18;233122.00;0.78;402.92;;;;;28.10;1.00;;;;;;2264282;61;1309;-87